Time;durP1;ratioP1;P1;durP2;ratioP2;P2;SDS_P1;SDS_P2;PMS_P1;PMS_P2;Temp;Humidity;BMP_temperature;BMP_pressure;BME280_temperature;BME280_humidity;BME280_pressure;Samples;Min_cycle;Max_cycle;Signal;HPM_P1;HPM_P2
2023/08/16 00:00:06;;;;;;;15.90;14.32;;;512.00;2380.80;;;;;;4992673;28;20041;-71
2023/08/16 00:02:32;;;;;;;20.08;13.85;;;512.00;2380.80;;;;;;4991742;28;20015;-72
2023/08/16 00:04:58;;;;;;;15.88;14.18;;;487.30;2380.80;;;;;;4991850;28;20102;-63
2023/08/16 00:07:24;;;;;;;17.42;14.32;;;487.30;2380.80;;;;;;4992319;28;20481;-69
2023/08/16 00:09:52;;;;;;;16.02;14.52;;;487.20;2380.80;;;;;;4992051;28;20113;-65
2023/08/16 00:12:18;;;;;;;14.23;12.73;;;487.20;2380.80;;;;;;4991759;28;20035;-63
2023/08/16 00:14:44;;;;;;;18.15;14.90;;;487.10;2380.80;;;;;;4992380;28;20487;-67
2023/08/16 00:17:09;;;;;;;15.55;14.23;;;487.10;2380.80;;;;;;4992040;28;20492;-71
2023/08/16 00:19:37;;;;;;;16.65;13.80;;;487.10;2380.80;;;;;;4992087;28;20109;-71
2023/08/16 00:22:02;;;;;;;14.40;12.95;;;487.10;2380.80;;;;;;4991692;28;20045;-71
2023/08/16 00:24:28;;;;;;;15.52;14.00;;;487.10;2380.80;;;;;;4992068;28;20026;-64
2023/08/16 00:26:54;;;;;;;15.75;14.18;;;487.00;2380.80;;;;;;4991893;28;20026;-73
2023/08/16 00:29:19;;;;;;;16.77;14.70;;;487.00;2380.80;;;;;;4991800;28;20432;-73
2023/08/16 00:31:45;;;;;;;15.82;14.15;;;487.00;2380.80;;;;;;4991936;28;20062;-72
2023/08/16 00:34:11;;;;;;;16.58;14.80;;;487.00;2380.80;;;;;;4991610;28;20026;-72
2023/08/16 00:36:36;;;;;;;16.20;14.60;;;487.00;2380.80;;;;;;4991722;28;20456;-72
2023/08/16 00:39:03;;;;;;;17.42;15.43;;;486.90;2380.80;;;;;;4991619;28;20026;-72
2023/08/16 00:41:29;;;;;;;18.20;14.98;;;486.90;2380.80;;;;;;4991578;28;20034;-64
2023/08/16 00:43:54;;;;;;;17.02;14.35;;;486.90;2380.80;;;;;;4991951;28;20484;-71
2023/08/16 00:46:21;;;;;;;20.10;14.77;;;487.00;2380.80;;;;;;4991174;28;20372;-70
2023/08/16 00:48:46;;;;;;;15.85;14.25;;;487.00;2380.80;;;;;;4991899;28;20034;-71
2023/08/16 00:51:13;;;;;;;16.98;14.25;;;487.00;2380.80;;;;;;4991892;28;20460;-72
2023/08/16 00:53:40;;;;;;;15.88;14.02;;;486.80;2380.80;;;;;;4991582;28;20025;-72
2023/08/16 00:56:06;;;;;;;18.60;14.80;;;486.80;2380.80;;;;;;4991709;28;20042;-71
2023/08/16 00:58:32;;;;;;;17.58;15.18;;;486.80;2380.80;;;;;;4991393;28;20369;-72
2023/08/16 01:00:58;;;;;;;16.25;14.60;;;486.80;2380.80;;;;;;4991700;28;20792;-70
2023/08/16 01:03:24;;;;;;;15.93;14.32;;;486.90;2380.80;;;;;;4990786;28;20493;-71
2023/08/16 01:05:50;;;;;;;16.40;14.27;;;486.90;2380.80;;;;;;4991054;28;20033;-67
2023/08/16 01:08:16;;;;;;;16.35;14.75;;;487.00;2380.80;;;;;;4991317;28;20507;-69
2023/08/16 01:10:51;;;;;;;17.30;14.00;;;487.00;2380.80;;;;;;4989915;28;20030;-64
2023/08/16 01:13:26;;;;;;;15.07;13.45;;;487.10;2380.80;;;;;;4980181;28;20042;-68
2023/08/16 01:15:55;;;;;;;16.02;14.27;;;487.10;2380.80;;;;;;4990852;28;20038;-71
2023/08/16 01:18:24;;;;;;;15.10;13.57;;;487.20;2380.80;;;;;;4990535;28;20039;-70
2023/08/16 01:20:52;;;;;;;14.88;13.32;;;487.20;2380.80;;;;;;4990628;28;20034;-70
2023/08/16 01:24:01;;;;;;;14.85;13.30;;;487.20;2380.80;;;;;;4990962;28;20441;-65
2023/08/16 01:26:37;;;;;;;15.88;13.32;;;487.30;2380.80;;;;;;4977192;28;20062;-69
2023/08/16 01:29:05;;;;;;;14.18;12.68;;;487.20;2380.80;;;;;;4990432;28;20503;-70
2023/08/16 01:31:33;;;;;;;15.73;13.88;;;487.20;2380.80;;;;;;4990579;28;20038;-66
2023/08/16 01:33:59;;;;;;;17.08;13.52;;;487.20;2380.80;;;;;;4990344;28;20346;-63
2023/08/16 01:36:26;;;;;;;14.63;13.23;;;487.20;2380.80;;;;;;4990576;28;20141;-72
2023/08/16 01:38:52;;;;;;;15.00;13.55;;;487.30;2380.80;;;;;;4990324;28;20449;-70
2023/08/16 01:41:25;;;;;;;17.48;13.82;;;512.00;2380.80;;;;;;4990834;28;20112;-70
2023/08/16 01:43:54;;;;;;;14.85;13.35;;;512.10;2380.80;;;;;;4978688;28;20018;-73
2023/08/16 01:46:21;;;;;;;15.68;13.98;;;512.00;2380.80;;;;;;4990127;28;20035;-71
2023/08/16 01:48:48;;;;;;;16.02;14.48;;;487.10;2380.80;;;;;;4990069;28;20030;-74
2023/08/16 01:51:14;;;;;;;15.50;13.90;;;487.10;2380.80;;;;;;4990759;28;20026;-72
2023/08/16 01:53:40;;;;;;;20.33;14.30;;;487.20;2380.80;;;;;;4990957;28;20057;-71
2023/08/16 01:56:05;;;;;;;15.07;13.05;;;487.10;2380.80;;;;;;4991661;28;20069;-71
2023/08/16 01:58:31;;;;;;;15.60;14.10;;;487.20;2380.80;;;;;;4990182;28;20026;-73
2023/08/16 02:00:57;;;;;;;16.52;14.80;;;487.30;2380.80;;;;;;4990509;28;20031;-70
2023/08/16 02:03:22;;;;;;;15.23;13.57;;;487.30;2380.80;;;;;;4990147;28;20042;-72
2023/08/16 02:05:48;;;;;;;14.77;13.20;;;512.00;2380.80;;;;;;4990335;28;20027;-70
2023/08/16 02:08:14;;;;;;;15.05;13.38;;;487.20;2380.80;;;;;;4990235;28;20019;-71
2023/08/16 02:10:39;;;;;;;14.93;13.40;;;487.10;2380.80;;;;;;4989843;28;20115;-69
2023/08/16 02:13:05;;;;;;;14.27;12.88;;;487.10;2380.80;;;;;;4990440;28;20085;-72
2023/08/16 02:15:31;;;;;;;14.93;13.50;;;487.10;2380.80;;;;;;4989781;28;20045;-73
2023/08/16 02:17:57;;;;;;;14.13;12.65;;;487.10;2380.80;;;;;;4990106;28;20018;-69
2023/08/16 02:20:23;;;;;;;14.25;12.82;;;487.10;2380.80;;;;;;4989828;28;20120;-72
2023/08/16 02:22:48;;;;;;;13.30;12.02;;;487.20;2380.80;;;;;;4990270;28;20427;-72
2023/08/16 02:25:14;;;;;;;14.35;12.98;;;487.20;2380.80;;;;;;4990223;28;20023;-73
2023/08/16 02:27:40;;;;;;;14.88;13.30;;;487.30;2380.80;;;;;;4990007;28;20034;-76
2023/08/16 02:30:07;;;;;;;14.77;13.25;;;512.00;2380.80;;;;;;4990126;28;20661;-69
2023/08/16 02:32:33;;;;;;;14.20;12.57;;;487.30;2380.80;;;;;;4989799;28;20026;-68
2023/08/16 02:34:59;;;;;;;14.30;13.00;;;487.30;2380.80;;;;;;4989596;28;20030;-72
2023/08/16 02:37:26;;;;;;;14.65;13.05;;;487.20;2380.80;;;;;;4989972;28;20105;-74
2023/08/16 02:39:52;;;;;;;16.42;13.68;;;487.30;2380.80;;;;;;4989472;28;20030;-71
2023/08/16 02:42:17;;;;;;;15.52;13.70;;;512.00;2380.80;;;;;;4989898;28;20037;-71
2023/08/16 02:44:43;;;;;;;16.38;13.40;;;512.10;2380.80;;;;;;4989726;28;20457;-71
2023/08/16 02:47:09;;;;;;;14.38;12.88;;;512.00;2380.80;;;;;;4989504;28;20060;-63
2023/08/16 02:49:35;;;;;;;15.90;13.98;;;487.30;2380.80;;;;;;4989496;28;20121;-67
2023/08/16 02:52:00;;;;;;;15.82;13.95;;;512.00;2380.80;;;;;;4989411;28;20138;-70
2023/08/16 02:54:26;;;;;;;14.95;13.43;;;512.00;2380.80;;;;;;4990050;28;20026;-71
2023/08/16 02:56:52;;;;;;;17.88;13.23;;;512.10;2380.80;;;;;;4989764;28;20495;-71
2023/08/16 02:59:17;;;;;;;15.85;14.05;;;512.20;2380.80;;;;;;4989818;28;20057;-67
2023/08/16 03:01:43;;;;;;;14.88;13.25;;;512.20;2380.80;;;;;;4993701;28;20469;-69
2023/08/16 03:04:10;;;;;;;15.60;13.95;;;512.20;2380.80;;;;;;4993396;28;20038;-63
2023/08/16 03:06:36;;;;;;;14.77;13.38;;;512.20;2380.80;;;;;;4993423;28;20027;-69
2023/08/16 03:09:01;;;;;;;14.63;13.13;;;512.10;2380.80;;;;;;4993479;28;20030;-70
2023/08/16 03:11:27;;;;;;;16.52;14.82;;;512.20;2380.80;;;;;;4993716;28;20023;-71
2023/08/16 03:13:53;;;;;;;16.98;15.25;;;512.20;2380.80;;;;;;4993135;28;20505;-71
2023/08/16 03:16:18;;;;;;;17.08;15.27;;;512.30;2380.80;;;;;;4993279;28;20057;-70
2023/08/16 03:18:44;;;;;;;15.57;13.98;;;512.30;2380.80;;;;;;4993295;28;20019;-71
2023/08/16 03:21:10;;;;;;;16.92;14.55;;;512.10;2380.80;;;;;;4993122;28;20050;-63
2023/08/16 03:23:35;;;;;;;14.95;13.55;;;512.00;2380.80;;;;;;4993107;28;20105;-69
2023/08/16 03:26:01;;;;;;;14.30;12.70;;;512.10;2380.80;;;;;;4975553;28;20031;-70
2023/08/16 03:28:27;;;;;;;16.45;13.88;;;512.20;2380.80;;;;;;4993233;28;20523;-71
2023/08/16 03:30:52;;;;;;;15.75;13.82;;;512.10;2380.80;;;;;;4993097;28;20030;-75
2023/08/16 03:33:18;;;;;;;15.38;13.77;;;487.30;2380.80;;;;;;4992819;28;20030;-74
2023/08/16 03:35:44;;;;;;;16.15;14.50;;;512.00;2380.80;;;;;;4993021;28;20128;-73
2023/08/16 03:38:09;;;;;;;16.60;13.43;;;512.00;2380.80;;;;;;4993050;28;20372;-72
2023/08/16 03:40:35;;;;;;;17.58;13.98;;;512.00;2380.80;;;;;;4992870;28;20042;-72
2023/08/16 03:43:02;;;;;;;17.83;14.65;;;512.00;2380.80;;;;;;4992673;28;20054;-73
2023/08/16 03:45:28;;;;;;;15.05;13.38;;;487.30;2380.80;;;;;;4992955;28;20461;-71
2023/08/16 03:47:56;;;;;;;14.85;13.18;;;512.00;2380.80;;;;;;4992312;28;20084;-71
2023/08/16 03:50:22;;;;;;;14.20;12.55;;;512.00;2380.80;;;;;;4992509;28;20022;-74
2023/08/16 03:52:48;;;;;;;14.75;13.23;;;487.30;2380.80;;;;;;4992568;28;20041;-72
2023/08/16 03:55:13;;;;;;;14.65;12.63;;;487.30;2380.80;;;;;;4992822;28;20366;-66
2023/08/16 03:57:39;;;;;;;14.27;12.88;;;512.00;2380.80;;;;;;4992584;28;20022;-66
2023/08/16 04:00:10;;;;;;;15.68;14.10;;;487.30;2380.80;;;;;;4992790;28;20480;-74
2023/08/16 04:02:35;;;;;;;15.15;12.90;;;487.30;2380.80;;;;;;4992037;28;20038;-69
2023/08/16 04:05:08;;;;;;;18.35;12.80;;;487.30;2380.80;;;;;;4992177;28;20479;-72
2023/08/16 04:07:34;;;;;;;;;;;487.30;2380.80;;;;;;4992610;28;20022;-74
2023/08/16 04:10:00;;;;;;;14.23;12.45;;;487.20;2380.80;;;;;;4992063;28;19917;-74
2023/08/16 04:12:25;;;;;;;16.85;13.95;;;487.10;2380.80;;;;;;4991827;28;20129;-75
2023/08/16 04:14:51;;;;;;;17.20;13.32;;;487.10;2380.80;;;;;;4984171;28;20377;-74
2023/08/16 04:17:17;;;;;;;16.05;14.35;;;487.20;2380.80;;;;;;4987136;28;20026;-73
2023/08/16 04:19:43;;;;;;;15.50;13.90;;;487.30;2380.80;;;;;;4991918;28;20026;-70
2023/08/16 04:22:09;;;;;;;14.68;13.27;;;512.00;2380.80;;;;;;4991752;28;20034;-70
2023/08/16 04:24:34;;;;;;;14.65;13.10;;;512.20;2380.80;;;;;;4992002;28;20019;-68
2023/08/16 04:27:00;;;;;;;14.45;12.95;;;512.30;2380.80;;;;;;4992025;28;20029;-66
2023/08/16 04:29:26;;;;;;;13.82;12.52;;;512.40;2380.80;;;;;;4991820;28;20483;-70
2023/08/16 04:31:51;;;;;;;15.23;12.63;;;512.60;2380.80;;;;;;4991629;28;20014;-74
2023/08/16 04:34:17;;;;;;;14.52;13.13;;;512.90;2380.80;;;;;;4991834;28;20049;-73
2023/08/16 04:36:43;;;;;;;15.30;13.70;;;512.90;2380.80;;;;;;4991405;28;20035;-73
2023/08/16 04:39:08;;;;;;;14.85;13.35;;;512.90;2380.80;;;;;;4991729;28;20181;-70
2023/08/16 04:41:34;;;;;;;17.02;13.55;;;537.60;2406.40;;;;;;4991857;28;20531;-69
2023/08/16 04:44:00;;;;;;;13.80;12.50;;;537.80;2406.40;;;;;;4991485;28;20031;-70
2023/08/16 04:46:25;;;;;;;15.02;13.52;;;538.00;2406.40;;;;;;4991231;28;20038;-74
2023/08/16 04:48:52;;;;;;;13.07;11.77;;;538.10;2406.40;;;;;;4991423;28;20532;-72
2023/08/16 04:51:18;;;;;;;14.65;13.13;;;538.00;2406.40;;;;;;4991643;28;20073;-72
2023/08/16 04:53:45;;;;;;;15.77;13.20;;;538.30;2406.40;;;;;;4991372;28;20054;-70
2023/08/16 04:56:11;;;;;;;13.77;12.48;;;538.50;2406.40;;;;;;4991244;28;20492;-72
2023/08/16 04:58:36;;;;;;;14.15;12.45;;;538.50;2406.40;;;;;;4991505;28;20062;-72
2023/08/16 05:01:02;;;;;;;15.15;13.65;;;538.50;2406.40;;;;;;4973296;28;20057;-71
2023/08/16 05:03:30;;;;;;;14.48;12.98;;;563.40;2432.00;;;;;;4991161;28;20015;-70
2023/08/16 05:06:04;;;;;;;13.13;11.77;;;563.70;2432.00;;;;;;4991163;28;20057;-71
2023/08/16 05:08:30;;;;;;;14.60;13.10;;;563.70;2432.00;;;;;;4990954;28;20026;-67
2023/08/16 05:10:57;;;;;;;14.65;12.93;;;563.80;2432.00;;;;;;4991288;28;20061;-61
2023/08/16 05:13:23;;;;;;;15.10;13.63;;;563.90;2432.00;;;;;;4990974;28;20043;-68
2023/08/16 05:15:49;;;;;;;14.55;13.05;;;588.80;2432.00;;;;;;4990631;28;20377;-62
2023/08/16 05:18:15;;;;;;;13.35;12.10;;;588.80;2432.00;;;;;;4991065;28;20034;-71
2023/08/16 05:20:41;;;;;;;20.52;13.43;;;589.30;2432.00;;;;;;4991234;28;20417;-67
2023/08/16 05:23:07;;;;;;;16.05;13.88;;;589.40;2432.00;;;;;;4990451;28;20113;-67
2023/08/16 05:25:32;;;;;;;14.65;13.23;;;589.20;2432.00;;;;;;4990967;28;20393;-70
2023/08/16 05:27:58;;;;;;;17.63;15.10;;;589.70;2432.00;;;;;;4983025;28;20081;-69
2023/08/16 05:30:25;;;;;;;15.20;12.63;;;640.20;2432.00;;;;;;4989438;28;20485;-69
2023/08/16 05:32:54;;;;;;;14.52;12.85;;;691.90;2432.00;;;;;;4989784;28;20018;-71
2023/08/16 05:35:20;;;;;;;15.73;14.13;;;742.90;2380.80;;;;;;4978608;28;20160;-70
2023/08/16 05:37:46;;;;;;;17.08;14.57;;;768.70;2176.00;;;;;;4979984;28;20039;-73
2023/08/16 05:40:12;;;;;;;15.55;14.05;;;794.30;2073.60;;;;;;4987933;28;20022;-63
2023/08/16 05:42:38;;;;;;;16.10;14.50;;;819.30;1996.80;;;;;;4982083;28;20041;-67
2023/08/16 05:45:05;;;;;;;14.63;13.32;;;819.30;1996.80;;;;;;4985914;28;20109;-70
2023/08/16 05:47:31;;;;;;;14.27;12.80;;;768.00;2099.20;;;;;;4990297;28;20380;-70
2023/08/16 05:49:58;;;;;;;20.15;15.35;;;717.10;2252.80;;;;;;4989627;28;20476;-68
2023/08/16 05:52:24;;;;;;;20.05;14.38;;;691.50;2329.60;;;;;;4990289;28;20022;-70
2023/08/16 05:54:49;;;;;;;16.77;15.23;;;665.80;2432.00;;;;;;4989985;28;20121;-69
2023/08/16 05:57:15;;;;;;;19.73;16.75;;;640.70;2432.00;;;;;;4992322;28;20026;-69
2023/08/16 05:59:41;;;;;;;21.77;18.52;;;614.90;2432.00;;;;;;4999608;28;20049;-70
2023/08/16 06:02:06;;;;;;;19.17;17.13;;;614.60;2432.00;;;;;;4984815;28;20082;-68
2023/08/16 06:04:36;;;;;;;23.38;20.88;;;614.50;2432.00;;;;;;4992586;28;20063;-68
2023/08/16 06:07:03;;;;;;;20.70;18.45;;;589.60;2432.00;;;;;;4977347;28;20027;-67
2023/08/16 06:09:29;;;;;;;21.95;19.67;;;589.70;2432.00;;;;;;4990172;28;20026;-65
2023/08/16 06:11:56;;;;;;;24.45;20.45;;;640.60;2432.00;;;;;;4990482;28;20154;-66
2023/08/16 06:14:22;;;;;;;24.20;21.88;;;665.90;2432.00;;;;;;4990150;28;20473;-69
2023/08/16 06:16:47;;;;;;;20.50;18.33;;;640.50;2432.00;;;;;;4990454;28;20045;-66
2023/08/16 06:19:14;;;;;;;20.13;18.13;;;640.60;2432.00;;;;;;4990113;28;20022;-68
2023/08/16 06:21:40;;;;;;;21.20;19.00;;;615.20;2432.00;;;;;;4989976;28;20464;-63
2023/08/16 06:24:08;;;;;;;22.15;19.85;;;614.80;2432.00;;;;;;4990315;28;20045;-69
2023/08/16 06:26:34;;;;;;;25.48;20.85;;;589.50;2432.00;;;;;;4990088;28;20486;-67
2023/08/16 06:28:59;;;;;;;24.95;20.73;;;614.80;2432.00;;;;;;4990223;28;20054;-66
2023/08/16 06:31:25;;;;;;;28.77;20.25;;;615.00;2432.00;;;;;;4990072;28;20135;-68
2023/08/16 06:33:51;;;;;;;33.78;24.33;;;640.00;2432.00;;;;;;4989765;28;20457;-69
2023/08/16 06:36:17;;;;;;;29.35;22.23;;;615.10;2432.00;;;;;;4989788;28;20054;-67
2023/08/16 06:38:43;;;;;;;25.85;19.83;;;640.20;2432.00;;;;;;4982705;28;20465;-66
2023/08/16 06:41:09;;;;;;;22.55;20.00;;;640.60;2432.00;;;;;;4984067;28;20042;-68
2023/08/16 06:43:35;;;;;;;16.75;15.02;;;640.70;2432.00;;;;;;4989875;28;20496;-68
2023/08/16 06:46:01;;;;;;;20.38;16.45;;;640.20;2432.00;;;;;;4989582;28;20034;-66
2023/08/16 06:48:27;;;;;;;23.05;16.58;;;640.10;2432.00;;;;;;4989950;28;20019;-68
2023/08/16 06:50:54;;;;;;;20.33;15.95;;;640.20;2432.00;;;;;;4989503;28;20026;-68
2023/08/16 06:53:20;;;;;;;18.63;16.50;;;640.50;2432.00;;;;;;4989731;28;20019;-66
2023/08/16 06:55:46;;;;;;;19.10;17.17;;;665.70;2432.00;;;;;;4989962;28;20066;-69
2023/08/16 06:58:12;;;;;;;20.13;17.17;;;666.00;2432.00;;;;;;4989984;28;20038;-68
2023/08/16 07:00:45;;;;;;;24.10;18.42;;;691.90;2432.00;;;;;;4989960;28;20444;-66
2023/08/16 07:03:11;;;;;;;;;;;716.90;2432.00;;;;;;4989996;28;20018;-69
2023/08/16 07:05:36;;;;;;;20.13;18.10;;;717.20;2432.00;;;;;;4989741;28;19909;-64
2023/08/16 07:08:03;;;;;;;23.08;20.45;;;691.70;2432.00;;;;;;4989616;28;20058;-69
2023/08/16 07:10:29;;;;;;;20.23;18.23;;;743.30;2355.20;;;;;;4989316;28;20061;-64
2023/08/16 07:12:55;;;;;;;20.52;18.33;;;819.80;2124.80;;;;;;4989764;28;20078;-70
2023/08/16 07:15:21;;;;;;;23.08;20.83;;;845.10;2022.40;;;;;;4989330;28;20540;-69
2023/08/16 07:17:47;;;;;;;22.65;20.60;;;793.60;2099.20;;;;;;4989506;28;20121;-64
2023/08/16 07:20:13;;;;;;;24.02;21.65;;;768.60;2150.40;;;;;;4989416;28;20425;-69
2023/08/16 07:22:39;;;;;;;23.58;21.23;;;742.90;2227.20;;;;;;4989188;28;20089;-66
2023/08/16 07:25:10;;;;;;;23.38;21.17;;;743.00;2227.20;;;;;;4989540;28;20026;-68
2023/08/16 07:27:36;;;;;;;22.15;20.08;;;742.70;2252.80;;;;;;4989604;28;20034;-67
2023/08/16 07:30:04;;;;;;;23.15;20.95;;;717.60;2278.40;;;;;;4989160;28;20030;-69
2023/08/16 07:32:30;;;;;;;24.25;21.83;;;717.60;2252.80;;;;;;4989329;28;20023;-70
2023/08/16 07:34:56;;;;;;;24.65;22.33;;;717.40;2278.40;;;;;;4989328;28;20401;-69
2023/08/16 07:37:22;;;;;;;24.15;21.90;;;716.80;2329.60;;;;;;4989195;28;20034;-68
2023/08/16 07:39:47;;;;;;;29.08;25.55;;;691.60;2355.20;;;;;;4989054;28;20377;-68
2023/08/16 07:42:13;;;;;;;26.73;24.13;;;665.60;2432.00;;;;;;4989534;28;20117;-66
2023/08/16 07:44:39;;;;;;;26.77;24.10;;;665.90;2432.00;;;;;;4989000;28;20018;-66
2023/08/16 07:47:05;;;;;;;27.73;24.90;;;640.60;2432.00;;;;;;4991902;28;20073;-67
2023/08/16 07:49:31;;;;;;;28.65;25.63;;;640.20;2432.00;;;;;;4992622;28;20376;-66
2023/08/16 07:51:57;;;;;;;28.80;25.83;;;640.20;2432.00;;;;;;4992564;28;20133;-66
2023/08/16 07:54:23;;;;;;;28.55;25.58;;;615.30;2432.00;;;;;;4992197;28;20030;-67
2023/08/16 07:56:53;;;;;;;30.42;27.27;;;614.90;2432.00;;;;;;4992929;28;20125;-67
2023/08/16 07:59:19;;;;;;;29.75;26.35;;;615.20;2432.00;;;;;;4992468;28;20126;-62
2023/08/16 08:01:45;;;;;;;34.97;27.60;;;615.20;2432.00;;;;;;4992697;28;20508;-68
2023/08/16 08:04:11;;;;;;;33.25;30.10;;;614.90;2432.00;;;;;;4992155;28;20472;-64
2023/08/16 08:06:37;;;;;;;37.42;30.70;;;615.10;2432.00;;;;;;4992540;28;20085;-67
2023/08/16 08:09:03;;;;;;;36.47;30.00;;;615.20;2432.00;;;;;;4992002;28;20019;-65
2023/08/16 08:11:29;;;;;;;33.13;29.85;;;614.70;2432.00;;;;;;4992556;28;20038;-63
2023/08/16 08:13:55;;;;;;;33.65;30.40;;;614.80;2432.00;;;;;;4992299;28;20053;-63
2023/08/16 08:16:21;;;;;;;36.10;32.40;;;614.90;2432.00;;;;;;4992001;28;20034;-63
2023/08/16 08:18:46;;;;;;;36.28;32.65;;;614.60;2432.00;;;;;;4992367;28;20551;-66
2023/08/16 08:21:12;;;;;;;37.08;33.13;;;614.50;2432.00;;;;;;4992328;28;20030;-67
2023/08/16 08:23:38;;;;;;;36.42;32.75;;;614.40;2432.00;;;;;;4992172;28;20114;-67
2023/08/16 08:26:03;;;;;;;37.28;33.47;;;614.50;2432.00;;;;;;4992108;28;20401;-68
2023/08/16 08:28:29;;;;;;;37.40;33.80;;;614.80;2432.00;;;;;;4974681;28;20058;-69
2023/08/16 08:30:55;;;;;;;35.30;31.85;;;614.80;2432.00;;;;;;4992414;28;20531;-69
2023/08/16 08:33:21;;;;;;;36.67;32.80;;;614.80;2432.00;;;;;;4991590;28;20034;-69
2023/08/16 08:35:48;;;;;;;36.63;32.92;;;614.50;2432.00;;;;;;4992071;28;20129;-65
2023/08/16 08:38:14;;;;;;;37.50;33.50;;;589.50;2432.00;;;;;;4992065;28;20029;-69
2023/08/16 08:40:40;;;;;;;34.53;31.23;;;589.20;2432.00;;;;;;4991471;28;20030;-65
2023/08/16 08:43:06;;;;;;;35.22;31.60;;;614.40;2432.00;;;;;;4992090;28;20361;-69
2023/08/16 08:45:33;;;;;;;37.83;33.80;;;614.40;2432.00;;;;;;4991796;28;20034;-69
2023/08/16 08:48:00;;;;;;;38.30;34.15;;;614.60;2432.00;;;;;;4991093;28;20259;-66
2023/08/16 08:50:29;;;;;;;40.08;35.47;;;614.50;2432.00;;;;;;4985075;28;20038;-64
2023/08/16 08:52:56;;;;;;;36.38;32.65;;;614.80;2432.00;;;;;;4987292;28;20121;-67
2023/08/16 08:55:25;;;;;;;36.67;32.58;;;615.20;2432.00;;;;;;4991316;28;20049;-69
2023/08/16 08:57:53;;;;;;;37.67;33.88;;;640.30;2432.00;;;;;;4986173;28;20027;-69
2023/08/16 09:00:20;;;;;;;35.50;32.00;;;640.40;2432.00;;;;;;4971654;28;20031;-67
2023/08/16 09:02:53;;;;;;;35.47;31.80;;;640.20;2432.00;;;;;;4980898;28;20057;-66
2023/08/16 09:05:25;;;;;;;36.17;32.70;;;640.90;2432.00;;;;;;4990469;28;20570;-67
2023/08/16 09:07:51;;;;;;;36.50;32.90;;;691.30;2432.00;;;;;;4978998;28;20042;-69
2023/08/16 09:10:18;;;;;;;35.10;31.52;;;692.10;2432.00;;;;;;4990349;28;20034;-68
2023/08/16 09:12:44;;;;;;;33.70;30.33;;;717.00;2432.00;;;;;;4979238;28;20049;-63
2023/08/16 09:15:10;;;;;;;36.72;32.75;;;691.90;2432.00;;;;;;4990831;28;20117;-64
2023/08/16 09:17:36;;;;;;;34.80;31.52;;;716.80;2432.00;;;;;;4991216;28;20476;-62
2023/08/16 09:20:05;;;;;;;34.95;31.67;;;717.20;2432.00;;;;;;4990735;28;20019;-65
2023/08/16 09:22:31;;;;;;;36.90;33.17;;;717.10;2432.00;;;;;;4990593;28;20026;-64
2023/08/16 09:24:58;;;;;;;37.22;33.70;;;691.80;2432.00;;;;;;4990804;28;20018;-66
2023/08/16 09:27:25;;;;;;;37.70;33.63;;;691.40;2432.00;;;;;;4991110;28;20026;-65
2023/08/16 09:29:56;;;;;;;36.28;32.72;;;691.30;2432.00;;;;;;4990994;28;20072;-64
2023/08/16 09:32:22;;;;;;;37.40;33.60;;;665.90;2432.00;;;;;;4990937;28;20022;-63
2023/08/16 09:34:48;;;;;;;37.03;32.92;;;666.00;2432.00;;;;;;4990893;28;20031;-62
2023/08/16 09:37:17;;;;;;;37.33;33.63;;;665.60;2432.00;;;;;;4991008;28;20113;-64
2023/08/16 09:39:43;;;;;;;40.17;36.00;;;640.70;2432.00;;;;;;4990586;28;20109;-65
2023/08/16 09:42:10;;;;;;;39.72;34.42;;;640.70;2432.00;;;;;;4990925;28;20118;-63
2023/08/16 09:44:36;;;;;;;37.33;33.53;;;640.70;2432.00;;;;;;4990620;28;20038;-66
2023/08/16 09:47:14;;;;;;;33.28;29.90;;;640.50;2432.00;;;;;;4990224;28;20061;-64
2023/08/16 09:49:43;;;;;;;37.55;32.75;;;640.20;2432.00;;;;;;4990038;28;20460;-65
2023/08/16 09:52:11;;;;;;;33.40;29.85;;;640.30;2432.00;;;;;;4990504;28;20134;-63
2023/08/16 09:54:37;;;;;;;32.60;29.40;;;640.10;2432.00;;;;;;4990761;28;20042;-64
2023/08/16 09:57:04;;;;;;;33.10;29.67;;;640.20;2432.00;;;;;;4990476;28;20031;-63
2023/08/16 09:59:31;;;;;;;36.67;31.40;;;615.30;2432.00;;;;;;4990775;28;20400;-62
2023/08/16 10:02:00;;;;;;;34.67;31.02;;;640.00;2432.00;;;;;;4990703;28;20026;-62
2023/08/16 10:04:27;;;;;;;34.58;28.35;;;615.20;2432.00;;;;;;4973548;28;20019;-64
2023/08/16 10:06:54;;;;;;;32.17;28.73;;;615.30;2432.00;;;;;;4993715;28;20026;-70
2023/08/16 10:09:22;;;;;;;29.67;26.67;;;640.10;2432.00;;;;;;4995220;28;20461;-66
2023/08/16 10:11:49;;;;;;;30.58;27.33;;;615.20;2432.00;;;;;;4991223;28;20085;-68
2023/08/16 10:14:15;;;;;;;29.73;26.60;;;615.30;2432.00;;;;;;4990470;28;20477;-69
2023/08/16 10:16:42;;;;;;;29.58;26.55;;;640.20;2432.00;;;;;;4989963;28;20085;-70
2023/08/16 10:19:13;;;;;;;30.98;27.63;;;640.50;2432.00;;;;;;4972898;28;20018;-68
2023/08/16 10:21:45;;;;;;;31.90;28.60;;;665.60;2432.00;;;;;;4990395;28;20037;-68
2023/08/16 10:24:15;;;;;;;31.83;28.67;;;665.90;2432.00;;;;;;4971364;28;20038;-67
2023/08/16 10:26:44;;;;;;;33.05;29.98;;;665.80;2432.00;;;;;;4980683;28;20117;-70
2023/08/16 10:29:13;;;;;;;30.80;28.00;;;666.30;2432.00;;;;;;4970491;28;20030;-68
2023/08/16 10:31:43;;;;;;;32.15;28.85;;;666.50;2432.00;;;;;;4970626;28;20110;-65
2023/08/16 10:34:11;;;;;;;33.53;30.20;;;691.40;2432.00;;;;;;4970684;28;20039;-70
2023/08/16 10:36:38;;;;;;;33.05;29.73;;;691.30;2432.00;;;;;;4970547;28;20066;-68
2023/08/16 10:39:03;;;;;;;32.22;28.83;;;691.40;2432.00;;;;;;4972506;28;20031;-69
2023/08/16 10:41:40;;;;;;;33.58;29.92;;;691.90;2432.00;;;;;;4980795;28;20042;-67
2023/08/16 10:44:07;;;;;;;32.65;29.35;;;716.90;2432.00;;;;;;4970423;28;20458;-69
2023/08/16 10:46:37;;;;;;;31.63;28.52;;;717.40;2432.00;;;;;;4970123;28;20051;-68
2023/08/16 10:49:08;;;;;;;34.42;30.88;;;742.40;2432.00;;;;;;4970801;28;20042;-70
2023/08/16 10:51:48;;;;;;;34.65;30.50;;;742.50;2432.00;;;;;;4984079;28;20033;-68
2023/08/16 10:54:15;;;;;;;33.08;29.83;;;743.00;2432.00;;;;;;4989910;28;20031;-70
2023/08/16 10:56:47;;;;;;;31.55;28.55;;;768.00;2406.40;;;;;;4989277;28;20042;-69
2023/08/16 10:59:14;;;;;;;33.13;29.90;;;768.30;2355.20;;;;;;4989560;28;20032;-68
2023/08/16 11:01:49;;;;;;;35.65;32.15;;;743.30;2380.80;;;;;;4976880;28;20407;-70
2023/08/16 11:04:15;;;;;;;33.10;30.13;;;768.40;2304.00;;;;;;4989606;28;20497;-69
2023/08/16 11:06:41;;;;;;;31.38;28.30;;;743.30;2304.00;;;;;;4989606;28;20465;-70
2023/08/16 11:09:07;;;;;;;31.77;28.77;;;742.90;2304.00;;;;;;4989640;28;20034;-70
2023/08/16 11:11:43;;;;;;;33.67;30.45;;;743.10;2329.60;;;;;;4989605;28;20408;-69
2023/08/16 11:14:08;;;;;;;32.97;29.80;;;768.00;2304.00;;;;;;4989478;28;20090;-70
2023/08/16 11:16:34;;;;;;;34.17;30.70;;;742.50;2329.60;;;;;;4989717;28;20069;-69
2023/08/16 11:19:04;;;;;;;34.90;31.70;;;742.60;2355.20;;;;;;4989436;28;20093;-67
2023/08/16 11:21:35;;;;;;;34.25;31.08;;;743.30;2329.60;;;;;;4991357;28;20050;-66
2023/08/16 11:24:02;;;;;;;34.00;30.50;;;768.10;2304.00;;;;;;4992981;28;20014;-69
2023/08/16 11:26:36;;;;;;;33.63;30.23;;;768.50;2227.20;;;;;;4993084;28;20473;-69
2023/08/16 11:29:02;;;;;;;34.58;30.83;;;768.20;2252.80;;;;;;4992871;28;20050;-70
2023/08/16 11:31:28;;;;;;;34.92;31.67;;;768.10;2278.40;;;;;;4993123;28;20058;-68
2023/08/16 11:33:54;;;;;;;32.50;29.58;;;768.70;2201.60;;;;;;4993368;28;20030;-66
2023/08/16 11:36:20;;;;;;;35.15;31.70;;;768.90;2252.80;;;;;;4975443;28;20081;-69
2023/08/16 11:38:48;;;;;;;35.65;31.98;;;768.40;2278.40;;;;;;4993036;28;20544;-68
2023/08/16 11:41:18;;;;;;;35.38;31.95;;;768.10;2252.80;;;;;;4992946;28;20026;-69
2023/08/16 11:43:44;;;;;;;36.13;32.78;;;743.30;2252.80;;;;;;4980261;28;20030;-70
2023/08/16 11:46:10;;;;;;;36.00;32.40;;;743.30;2278.40;;;;;;4992929;28;20072;-69
2023/08/16 11:48:36;;;;;;;34.65;31.48;;;743.30;2304.00;;;;;;4992688;28;20022;-69
2023/08/16 11:51:02;;;;;;;35.28;31.88;;;742.60;2329.60;;;;;;4992762;28;20022;-66
2023/08/16 11:53:35;;;;;;;35.28;32.00;;;742.40;2355.20;;;;;;4992545;28;20026;-68
2023/08/16 11:56:05;;;;;;;36.10;32.70;;;717.00;2380.80;;;;;;4992234;28;20038;-69